createdAt,value
2023-02-14T00:02:03.386Z,72.40
2023-02-14T00:07:08.831Z,72.60
2023-02-14T00:12:13.694Z,72.80
2023-02-14T00:17:18.852Z,72.80
2023-02-14T00:22:22.788Z,72.90
2023-02-14T00:27:27.263Z,74.00
2023-02-14T00:32:31.768Z,73.80
2023-02-14T00:37:37.885Z,73.30
2023-02-14T00:42:43.318Z,73.70
2023-02-14T00:47:47.558Z,73.90
2023-02-14T00:52:51.104Z,74.40
2023-02-14T00:57:55.195Z,76.10
2023-02-14T01:02:58.679Z,76.40
2023-02-14T01:08:02.471Z,74.70
2023-02-14T01:13:08.398Z,74.10
2023-02-14T01:18:13.444Z,75.00
2023-02-14T01:23:19.771Z,75.10
2023-02-14T01:28:27.267Z,74.50
2023-02-14T01:33:31.184Z,74.60
2023-02-14T01:38:36.680Z,73.70
2023-02-14T01:44:16.413Z,74.40
2023-02-14T01:49:36.888Z,74.60
2023-02-14T01:54:46.494Z,75.10
2023-02-14T02:00:18.191Z,74.60
2023-02-14T02:05:25.274Z,74.70
2023-02-14T02:10:29.903Z,74.80
2023-02-14T02:15:50.512Z,74.00
2023-02-14T02:21:03.115Z,75.00
2023-02-14T02:26:32.477Z,77.60
2023-02-14T02:31:43.760Z,76.40
2023-02-14T02:37:39.197Z,76.20
2023-02-14T02:43:14.968Z,76.50
2023-02-14T02:48:24.450Z,75.90
2023-02-14T02:53:46.044Z,75.80
2023-02-14T02:59:02.164Z,74.90
2023-02-14T03:04:29.364Z,75.40
2023-02-14T03:09:33.077Z,75.70
2023-02-14T03:14:47.137Z,76.20
2023-02-14T03:20:29.586Z,76.10
2023-02-14T03:25:53.220Z,76.70
2023-02-14T03:31:11.479Z,76.30
2023-02-14T03:36:49.033Z,76.50
2023-02-14T03:42:06.277Z,77.30
2023-02-14T03:47:15.272Z,77.50
2023-02-14T03:52:21.170Z,77.40
2023-02-14T03:57:41.141Z,77.40
2023-02-14T04:02:50.662Z,77.50
2023-02-14T04:07:57.582Z,77.30
2023-02-14T04:13:01.404Z,77.80
2023-02-14T04:18:25.037Z,77.50
2023-02-14T04:23:29.416Z,77.50
2023-02-14T04:28:34.714Z,77.30
2023-02-14T04:33:39.774Z,78.40
2023-02-14T04:38:44.707Z,77.60
2023-02-14T04:43:49.093Z,80.10
2023-02-14T04:48:54.467Z,78.80
2023-02-14T04:53:59.975Z,78.60
2023-02-14T04:59:04.946Z,78.40
2023-02-14T05:04:09.800Z,77.90
2023-02-14T05:09:14.606Z,77.40
2023-02-14T05:14:18.910Z,77.90
2023-02-14T05:19:24.956Z,77.70
2023-02-14T05:24:29.760Z,77.40
2023-02-14T05:29:34.262Z,77.60
2023-02-14T05:34:38.258Z,78.70
2023-02-14T05:39:42.732Z,78.50
2023-02-14T05:44:49.535Z,78.20
2023-02-14T05:49:54.265Z,77.60
2023-02-14T05:54:58.838Z,79.40
2023-02-14T06:00:07.287Z,78.70
2023-02-14T06:05:19.371Z,78.20
2023-02-14T06:10:25.921Z,78.30
2023-02-14T06:15:30.274Z,78.40
2023-02-14T06:20:34.673Z,79.00
2023-02-14T06:25:38.801Z,80.60
2023-02-14T06:30:43.067Z,79.30
2023-02-14T06:35:48.640Z,80.30
2023-02-14T06:40:53.290Z,79.30
2023-02-14T06:45:58.372Z,78.90
2023-02-14T06:51:03.315Z,79.00
2023-02-14T06:56:08.806Z,79.40
2023-02-14T07:01:12.738Z,80.10
2023-02-14T07:06:17.990Z,79.70
2023-02-14T07:11:23.093Z,78.70
2023-02-14T07:16:28.516Z,78.70
2023-02-14T07:21:32.408Z,80.00
2023-02-14T07:26:37.410Z,81.00
2023-02-14T07:31:46.795Z,80.90
2023-02-14T07:36:56.636Z,79.70
2023-02-14T07:42:01.581Z,80.90
2023-02-14T07:47:10.060Z,80.80
2023-02-14T07:52:15.472Z,81.30
2023-02-14T07:57:19.770Z,80.50
2023-02-14T08:02:24.935Z,79.40
2023-02-14T08:07:30.640Z,78.80
2023-02-14T08:12:54.438Z,78.00
2023-02-14T08:17:59.558Z,78.30
2023-02-14T08:23:04.268Z,77.90
2023-02-14T08:28:08.940Z,77.40
2023-02-14T08:33:13.289Z,77.50
2023-02-14T08:38:20.792Z,76.90
2023-02-14T08:43:26.315Z,76.40
2023-02-14T08:48:31.321Z,76.10
2023-02-14T08:53:35.956Z,75.50
2023-02-14T08:58:40.393Z,75.00
2023-02-14T09:03:45.452Z,74.30
2023-02-14T09:08:50.040Z,74.40
2023-02-14T09:13:54.469Z,73.90
2023-02-14T09:18:59.512Z,73.90
2023-02-14T09:24:04.236Z,73.70
2023-02-14T09:29:08.850Z,73.40
2023-02-14T09:34:13.813Z,73.30
2023-02-14T09:39:19.034Z,73.00
2023-02-14T09:44:51.308Z,72.90
2023-02-14T09:49:56.239Z,72.30
2023-02-14T09:55:03.203Z,71.60
2023-02-14T10:00:31.222Z,70.40
2023-02-14T10:05:45.056Z,69.50
2023-02-14T10:11:01.702Z,68.80
2023-02-14T10:16:26.843Z,68.10
2023-02-14T10:21:49.672Z,67.50
2023-02-14T10:27:01.670Z,67.10
2023-02-14T10:32:15.515Z,66.10
2023-02-14T10:37:51.954Z,65.40
2023-02-14T10:43:10.829Z,64.00
2023-02-14T10:48:48.417Z,63.60
2023-02-14T10:54:33.790Z,63.00
2023-02-14T11:00:00.481Z,62.20
2023-02-14T11:05:08.397Z,61.50
2023-02-14T11:10:16.342Z,60.40
2023-02-14T11:15:22.880Z,59.40
2023-02-14T11:20:30.716Z,58.90
2023-02-14T11:25:37.207Z,60.00
2023-02-14T11:30:46.207Z,56.10
2023-02-14T11:35:53.977Z,54.20
2023-02-14T11:41:00.021Z,51.10
2023-02-14T11:46:16.289Z,51.20
2023-02-14T11:51:28.991Z,50.40
2023-02-14T11:57:07.687Z,47.20
2023-02-14T12:02:27.007Z,40.10
2023-02-14T12:07:38.443Z,43.00
2023-02-14T12:13:04.684Z,42.90
2023-02-14T12:18:30.067Z,37.20
2023-02-14T12:23:46.393Z,40.70
2023-02-14T12:29:12.531Z,38.70
2023-02-14T12:34:21.708Z,38.00
2023-02-14T12:40:09.917Z,38.00
2023-02-14T12:45:48.998Z,32.00
2023-02-14T12:51:05.995Z,33.60
2023-02-14T12:56:21.690Z,32.60
2023-02-14T13:01:43.414Z,33.50
2023-02-14T13:07:45.033Z,33.10
2023-02-14T13:13:11.588Z,30.10
2023-02-14T13:18:36.055Z,28.70
2023-02-14T13:23:46.836Z,32.20
2023-02-14T13:29:06.852Z,30.20
2023-02-14T13:34:32.714Z,33.20
2023-02-14T13:39:43.406Z,31.70
2023-02-14T13:44:48.287Z,32.50
2023-02-14T13:50:32.707Z,26.80
2023-02-14T13:55:43.556Z,26.80
2023-02-14T14:00:50.467Z,29.70
2023-02-14T14:06:11.990Z,29.10
2023-02-14T14:11:22.853Z,27.50
2023-02-14T14:16:37.692Z,29.70
2023-02-14T14:22:00.952Z,30.50
2023-02-14T14:27:14.684Z,29.50
2023-02-14T14:32:19.698Z,32.20
2023-02-14T14:37:26.929Z,34.40
2023-02-14T14:42:36.916Z,36.60
2023-02-14T14:47:46.261Z,38.10
2023-02-14T14:52:54.753Z,38.80
2023-02-14T14:58:05.779Z,38.80
2023-02-14T15:03:13.396Z,39.00
2023-02-14T15:08:32.720Z,39.70
2023-02-14T15:13:50.242Z,40.60
2023-02-14T15:19:12.208Z,40.10
2023-02-14T15:24:17.812Z,40.50
2023-02-14T15:29:23.450Z,41.70
2023-02-14T15:34:55.592Z,41.80
2023-02-14T15:40:00.474Z,42.10
2023-02-14T15:45:28.261Z,42.00
2023-02-14T15:50:36.224Z,42.70
2023-02-14T15:55:40.358Z,42.70
2023-02-14T16:00:45.590Z,43.10
2023-02-14T16:05:51.456Z,43.60
2023-02-14T16:11:10.450Z,44.40
2023-02-14T16:16:16.231Z,45.40
2023-02-14T16:21:31.863Z,46.20
2023-02-14T16:26:39.696Z,46.20
2023-02-14T16:32:14.138Z,47.00
2023-02-14T16:37:30.151Z,47.60
2023-02-14T16:42:37.745Z,48.20
2023-02-14T16:47:42.490Z,48.90
2023-02-14T16:52:51.823Z,49.60
2023-02-14T16:57:56.494Z,50.90
2023-02-14T17:03:06.395Z,51.30
2023-02-14T17:08:13.490Z,52.30
2023-02-14T17:13:25.534Z,53.60
2023-02-14T17:18:31.396Z,53.90
2023-02-14T17:23:36.823Z,57.20
2023-02-14T17:28:41.058Z,54.40
2023-02-14T17:33:45.935Z,54.70
2023-02-14T17:38:50.704Z,54.50
2023-02-14T17:43:56.286Z,55.50
2023-02-14T17:49:04.878Z,58.10
2023-02-14T17:54:13.903Z,59.50
2023-02-14T17:59:19.502Z,59.40
2023-02-14T18:04:23.813Z,58.80
2023-02-14T18:09:28.485Z,59.50
2023-02-14T18:14:34.095Z,59.70
2023-02-14T18:19:39.587Z,59.10
2023-02-14T18:24:43.593Z,60.20
2023-02-14T18:29:48.595Z,61.30
2023-02-14T18:34:55.810Z,61.50
2023-02-14T18:40:01.607Z,62.20
2023-02-14T18:45:07.152Z,62.30
2023-02-14T18:50:11.900Z,63.20
2023-02-14T18:55:17.350Z,62.90
2023-02-14T19:00:25.250Z,63.20
